sensor_id;sensor_type;location;lat;lon;timestamp;P1;durP1;ratioP1;P2;durP2;ratioP2
20124;SDS011;10223;50.862;4.360;2023-07-22T00:00:23;14.55;;;8.35;;
20124;SDS011;10223;50.862;4.360;2023-07-22T00:02:52;17.17;;;8.50;;
20124;SDS011;10223;50.862;4.360;2023-07-22T00:05:19;12.18;;;7.60;;
20124;SDS011;10223;50.862;4.360;2023-07-22T00:07:48;14.68;;;8.55;;
20124;SDS011;10223;50.862;4.360;2023-07-22T00:10:15;12.77;;;7.70;;
20124;SDS011;10223;50.862;4.360;2023-07-22T00:12:42;16.10;;;7.90;;
20124;SDS011;10223;50.862;4.360;2023-07-22T00:15:09;14.55;;;8.38;;
20124;SDS011;10223;50.862;4.360;2023-07-22T00:17:37;14.90;;;8.38;;
20124;SDS011;10223;50.862;4.360;2023-07-22T00:20:07;14.80;;;8.00;;
20124;SDS011;10223;50.862;4.360;2023-07-22T00:22:36;13.50;;;8.15;;
20124;SDS011;10223;50.862;4.360;2023-07-22T00:25:05;13.55;;;8.10;;
20124;SDS011;10223;50.862;4.360;2023-07-22T00:27:35;16.30;;;8.43;;
20124;SDS011;10223;50.862;4.360;2023-07-22T00:30:02;12.95;;;8.18;;
20124;SDS011;10223;50.862;4.360;2023-07-22T00:32:29;13.37;;;8.67;;
20124;SDS011;10223;50.862;4.360;2023-07-22T00:34:56;16.87;;;8.60;;
20124;SDS011;10223;50.862;4.360;2023-07-22T00:37:24;17.30;;;9.18;;
20124;SDS011;10223;50.862;4.360;2023-07-22T00:39:52;19.08;;;8.57;;
20124;SDS011;10223;50.862;4.360;2023-07-22T00:42:20;14.07;;;8.10;;
20124;SDS011;10223;50.862;4.360;2023-07-22T00:44:46;13.17;;;7.90;;
20124;SDS011;10223;50.862;4.360;2023-07-22T00:47:13;16.43;;;8.53;;
20124;SDS011;10223;50.862;4.360;2023-07-22T00:49:41;17.33;;;8.30;;
20124;SDS011;10223;50.862;4.360;2023-07-22T00:52:09;19.20;;;8.70;;
20124;SDS011;10223;50.862;4.360;2023-07-22T00:54:37;17.87;;;8.57;;
20124;SDS011;10223;50.862;4.360;2023-07-22T00:57:04;14.13;;;8.57;;
20124;SDS011;10223;50.862;4.360;2023-07-22T00:59:32;14.70;;;8.50;;
20124;SDS011;10223;50.862;4.360;2023-07-22T01:01:59;21.20;;;8.93;;
20124;SDS011;10223;50.862;4.360;2023-07-22T01:04:26;15.23;;;8.00;;
20124;SDS011;10223;50.862;4.360;2023-07-22T01:06:53;14.37;;;8.33;;
20124;SDS011;10223;50.862;4.360;2023-07-22T01:09:21;16.37;;;8.10;;
20124;SDS011;10223;50.862;4.360;2023-07-22T01:11:49;25.50;;;8.80;;
20124;SDS011;10223;50.862;4.360;2023-07-22T01:14:16;14.27;;;8.03;;
20124;SDS011;10223;50.862;4.360;2023-07-22T01:16:43;16.90;;;8.97;;
20124;SDS011;10223;50.862;4.360;2023-07-22T01:19:10;14.27;;;8.43;;
20124;SDS011;10223;50.862;4.360;2023-07-22T01:21:41;13.87;;;7.83;;
20124;SDS011;10223;50.862;4.360;2023-07-22T01:24:10;16.70;;;9.00;;
20124;SDS011;10223;50.862;4.360;2023-07-22T01:26:37;17.47;;;8.57;;
20124;SDS011;10223;50.862;4.360;2023-07-22T01:29:04;16.60;;;8.53;;
20124;SDS011;10223;50.862;4.360;2023-07-22T01:31:33;15.67;;;8.53;;
20124;SDS011;10223;50.862;4.360;2023-07-22T01:34:01;14.97;;;8.47;;
20124;SDS011;10223;50.862;4.360;2023-07-22T01:36:29;15.03;;;7.77;;
20124;SDS011;10223;50.862;4.360;2023-07-22T01:38:55;16.73;;;8.83;;
20124;SDS011;10223;50.862;4.360;2023-07-22T01:41:24;16.77;;;8.43;;
20124;SDS011;10223;50.862;4.360;2023-07-22T01:43:50;22.73;;;9.20;;
20124;SDS011;10223;50.862;4.360;2023-07-22T01:46:17;15.47;;;9.20;;
20124;SDS011;10223;50.862;4.360;2023-07-22T01:48:45;15.03;;;8.83;;
20124;SDS011;10223;50.862;4.360;2023-07-22T01:51:12;17.63;;;8.97;;
20124;SDS011;10223;50.862;4.360;2023-07-22T01:53:38;16.90;;;8.17;;
20124;SDS011;10223;50.862;4.360;2023-07-22T01:56:05;19.83;;;9.03;;
20124;SDS011;10223;50.862;4.360;2023-07-22T01:58:33;16.83;;;9.03;;
20124;SDS011;10223;50.862;4.360;2023-07-22T02:01:00;16.30;;;9.10;;
20124;SDS011;10223;50.862;4.360;2023-07-22T02:03:27;15.87;;;9.23;;
20124;SDS011;10223;50.862;4.360;2023-07-22T02:06:00;16.80;;;8.87;;
20124;SDS011;10223;50.862;4.360;2023-07-22T02:08:27;19.07;;;8.57;;
20124;SDS011;10223;50.862;4.360;2023-07-22T02:10:54;16.53;;;9.60;;
20124;SDS011;10223;50.862;4.360;2023-07-22T02:13:24;16.50;;;8.50;;
20124;SDS011;10223;50.862;4.360;2023-07-22T02:15:54;14.90;;;8.27;;
20124;SDS011;10223;50.862;4.360;2023-07-22T02:18:21;15.90;;;8.80;;
20124;SDS011;10223;50.862;4.360;2023-07-22T02:20:48;16.40;;;9.00;;
20124;SDS011;10223;50.862;4.360;2023-07-22T02:23:15;20.00;;;9.73;;
20124;SDS011;10223;50.862;4.360;2023-07-22T02:25:43;19.07;;;8.87;;
20124;SDS011;10223;50.862;4.360;2023-07-22T02:28:10;17.70;;;8.47;;
20124;SDS011;10223;50.862;4.360;2023-07-22T02:30:37;17.43;;;8.63;;
20124;SDS011;10223;50.862;4.360;2023-07-22T02:33:05;15.43;;;9.20;;
20124;SDS011;10223;50.862;4.360;2023-07-22T02:35:32;18.30;;;9.53;;
20124;SDS011;10223;50.862;4.360;2023-07-22T02:37:59;19.90;;;9.40;;
20124;SDS011;10223;50.862;4.360;2023-07-22T02:40:26;19.90;;;10.00;;
20124;SDS011;10223;50.862;4.360;2023-07-22T02:42:53;20.13;;;9.83;;
20124;SDS011;10223;50.862;4.360;2023-07-22T02:45:20;18.67;;;9.77;;
20124;SDS011;10223;50.862;4.360;2023-07-22T02:47:47;16.47;;;10.37;;
20124;SDS011;10223;50.862;4.360;2023-07-22T02:50:15;20.63;;;9.97;;
20124;SDS011;10223;50.862;4.360;2023-07-22T02:52:42;19.97;;;10.07;;
20124;SDS011;10223;50.862;4.360;2023-07-22T02:55:10;23.80;;;11.50;;
20124;SDS011;10223;50.862;4.360;2023-07-22T02:57:40;21.33;;;10.63;;
20124;SDS011;10223;50.862;4.360;2023-07-22T03:00:08;19.40;;;10.03;;
20124;SDS011;10223;50.862;4.360;2023-07-22T03:02:37;21.87;;;11.13;;
20124;SDS011;10223;50.862;4.360;2023-07-22T03:05:05;18.80;;;10.03;;
20124;SDS011;10223;50.862;4.360;2023-07-22T03:07:35;17.73;;;10.77;;
20124;SDS011;10223;50.862;4.360;2023-07-22T03:10:02;20.70;;;10.27;;
20124;SDS011;10223;50.862;4.360;2023-07-22T03:12:29;22.53;;;11.03;;
20124;SDS011;10223;50.862;4.360;2023-07-22T03:14:56;18.87;;;10.70;;
20124;SDS011;10223;50.862;4.360;2023-07-22T03:17:23;22.93;;;11.23;;
20124;SDS011;10223;50.862;4.360;2023-07-22T03:19:50;25.10;;;11.87;;
20124;SDS011;10223;50.862;4.360;2023-07-22T03:22:17;24.97;;;12.10;;
20124;SDS011;10223;50.862;4.360;2023-07-22T03:24:45;26.33;;;11.93;;
20124;SDS011;10223;50.862;4.360;2023-07-22T03:27:12;20.73;;;10.50;;
20124;SDS011;10223;50.862;4.360;2023-07-22T03:29:42;23.27;;;10.90;;
20124;SDS011;10223;50.862;4.360;2023-07-22T03:32:09;21.07;;;11.13;;
20124;SDS011;10223;50.862;4.360;2023-07-22T03:34:35;19.00;;;11.00;;
20124;SDS011;10223;50.862;4.360;2023-07-22T03:37:02;22.97;;;10.87;;
20124;SDS011;10223;50.862;4.360;2023-07-22T03:39:29;24.50;;;11.27;;
20124;SDS011;10223;50.862;4.360;2023-07-22T03:41:57;20.47;;;10.60;;
20124;SDS011;10223;50.862;4.360;2023-07-22T03:44:24;24.67;;;10.13;;
20124;SDS011;10223;50.862;4.360;2023-07-22T03:46:53;19.70;;;10.90;;
20124;SDS011;10223;50.862;4.360;2023-07-22T03:49:20;22.17;;;11.23;;
20124;SDS011;10223;50.862;4.360;2023-07-22T03:51:47;19.77;;;11.00;;
20124;SDS011;10223;50.862;4.360;2023-07-22T03:54:14;24.30;;;11.00;;
20124;SDS011;10223;50.862;4.360;2023-07-22T03:56:40;20.77;;;10.87;;
20124;SDS011;10223;50.862;4.360;2023-07-22T03:59:09;25.03;;;11.07;;
20124;SDS011;10223;50.862;4.360;2023-07-22T04:01:35;21.50;;;10.73;;
20124;SDS011;10223;50.862;4.360;2023-07-22T04:04:03;21.17;;;10.47;;
20124;SDS011;10223;50.862;4.360;2023-07-22T04:06:30;22.33;;;10.70;;
20124;SDS011;10223;50.862;4.360;2023-07-22T04:08:56;22.13;;;10.90;;
20124;SDS011;10223;50.862;4.360;2023-07-22T04:11:25;25.23;;;11.77;;
20124;SDS011;10223;50.862;4.360;2023-07-22T04:13:52;22.93;;;10.80;;
20124;SDS011;10223;50.862;4.360;2023-07-22T04:16:20;25.83;;;11.37;;
20124;SDS011;10223;50.862;4.360;2023-07-22T04:18:47;20.87;;;9.87;;
20124;SDS011;10223;50.862;4.360;2023-07-22T04:21:14;19.33;;;9.83;;
20124;SDS011;10223;50.862;4.360;2023-07-22T04:23:41;23.97;;;9.87;;
20124;SDS011;10223;50.862;4.360;2023-07-22T04:26:08;19.30;;;10.13;;
20124;SDS011;10223;50.862;4.360;2023-07-22T04:28:35;22.77;;;9.80;;
20124;SDS011;10223;50.862;4.360;2023-07-22T04:31:02;19.60;;;9.67;;
20124;SDS011;10223;50.862;4.360;2023-07-22T04:33:30;21.83;;;10.33;;
20124;SDS011;10223;50.862;4.360;2023-07-22T04:35:58;19.63;;;9.23;;
20124;SDS011;10223;50.862;4.360;2023-07-22T04:38:26;21.97;;;10.23;;
20124;SDS011;10223;50.862;4.360;2023-07-22T04:40:53;18.50;;;9.63;;
20124;SDS011;10223;50.862;4.360;2023-07-22T04:43:20;20.17;;;10.77;;
20124;SDS011;10223;50.862;4.360;2023-07-22T04:45:46;23.20;;;10.80;;
20124;SDS011;10223;50.862;4.360;2023-07-22T04:48:14;19.37;;;10.40;;
20124;SDS011;10223;50.862;4.360;2023-07-22T04:50:43;18.20;;;10.23;;
20124;SDS011;10223;50.862;4.360;2023-07-22T04:53:11;25.33;;;10.03;;
20124;SDS011;10223;50.862;4.360;2023-07-22T04:55:39;20.40;;;10.30;;
20124;SDS011;10223;50.862;4.360;2023-07-22T04:58:05;20.87;;;10.63;;
20124;SDS011;10223;50.862;4.360;2023-07-22T05:00:33;22.67;;;9.83;;
20124;SDS011;10223;50.862;4.360;2023-07-22T05:03:00;25.70;;;10.47;;
20124;SDS011;10223;50.862;4.360;2023-07-22T05:05:27;23.40;;;9.93;;
20124;SDS011;10223;50.862;4.360;2023-07-22T05:07:55;20.40;;;9.80;;
20124;SDS011;10223;50.862;4.360;2023-07-22T05:10:23;28.63;;;10.63;;
20124;SDS011;10223;50.862;4.360;2023-07-22T05:12:49;18.57;;;9.97;;
20124;SDS011;10223;50.862;4.360;2023-07-22T05:15:16;22.60;;;10.07;;
20124;SDS011;10223;50.862;4.360;2023-07-22T05:17:43;25.87;;;9.57;;
20124;SDS011;10223;50.862;4.360;2023-07-22T05:20:10;23.80;;;10.17;;
20124;SDS011;10223;50.862;4.360;2023-07-22T05:22:38;24.30;;;10.47;;
20124;SDS011;10223;50.862;4.360;2023-07-22T05:25:07;17.00;;;9.03;;
20124;SDS011;10223;50.862;4.360;2023-07-22T05:27:35;18.80;;;8.93;;
20124;SDS011;10223;50.862;4.360;2023-07-22T05:30:02;23.87;;;10.60;;
20124;SDS011;10223;50.862;4.360;2023-07-22T05:32:29;21.83;;;9.93;;
20124;SDS011;10223;50.862;4.360;2023-07-22T05:34:56;24.40;;;10.07;;
20124;SDS011;10223;50.862;4.360;2023-07-22T05:37:23;26.47;;;10.47;;
20124;SDS011;10223;50.862;4.360;2023-07-22T05:39:50;21.63;;;9.33;;
20124;SDS011;10223;50.862;4.360;2023-07-22T05:42:18;20.10;;;9.30;;
20124;SDS011;10223;50.862;4.360;2023-07-22T05:44:45;18.67;;;9.40;;
20124;SDS011;10223;50.862;4.360;2023-07-22T05:47:12;22.13;;;9.60;;
20124;SDS011;10223;50.862;4.360;2023-07-22T05:49:39;27.30;;;9.83;;
20124;SDS011;10223;50.862;4.360;2023-07-22T05:52:06;16.40;;;9.03;;
20124;SDS011;10223;50.862;4.360;2023-07-22T05:54:33;24.33;;;8.07;;
20124;SDS011;10223;50.862;4.360;2023-07-22T05:57:00;25.00;;;9.20;;
20124;SDS011;10223;50.862;4.360;2023-07-22T05:59:30;22.30;;;9.07;;
20124;SDS011;10223;50.862;4.360;2023-07-22T06:01:57;21.17;;;8.30;;
20124;SDS011;10223;50.862;4.360;2023-07-22T06:04:24;21.40;;;8.77;;
20124;SDS011;10223;50.862;4.360;2023-07-22T06:06:50;18.67;;;7.80;;
20124;SDS011;10223;50.862;4.360;2023-07-22T06:09:17;14.93;;;7.87;;
20124;SDS011;10223;50.862;4.360;2023-07-22T06:11:45;20.87;;;7.73;;
20124;SDS011;10223;50.862;4.360;2023-07-22T06:14:12;18.40;;;7.80;;
20124;SDS011;10223;50.862;4.360;2023-07-22T06:16:40;21.30;;;8.67;;
20124;SDS011;10223;50.862;4.360;2023-07-22T06:19:07;18.87;;;8.03;;
20124;SDS011;10223;50.862;4.360;2023-07-22T06:21:33;14.10;;;7.43;;
20124;SDS011;10223;50.862;4.360;2023-07-22T06:24:00;18.23;;;7.97;;
20124;SDS011;10223;50.862;4.360;2023-07-22T06:26:27;18.23;;;8.30;;
20124;SDS011;10223;50.862;4.360;2023-07-22T06:28:54;21.67;;;7.60;;
20124;SDS011;10223;50.862;4.360;2023-07-22T06:31:22;15.87;;;7.70;;
20124;SDS011;10223;50.862;4.360;2023-07-22T06:33:50;19.17;;;7.80;;
20124;SDS011;10223;50.862;4.360;2023-07-22T06:36:16;22.80;;;8.20;;
20124;SDS011;10223;50.862;4.360;2023-07-22T06:38:43;16.53;;;7.43;;
20124;SDS011;10223;50.862;4.360;2023-07-22T06:41:10;16.20;;;7.20;;
20124;SDS011;10223;50.862;4.360;2023-07-22T06:43:37;17.60;;;7.47;;
20124;SDS011;10223;50.862;4.360;2023-07-22T06:46:05;17.17;;;6.60;;
20124;SDS011;10223;50.862;4.360;2023-07-22T06:48:32;21.20;;;7.87;;
20124;SDS011;10223;50.862;4.360;2023-07-22T06:51:00;19.40;;;7.30;;
20124;SDS011;10223;50.862;4.360;2023-07-22T06:53:26;17.30;;;7.27;;
20124;SDS011;10223;50.862;4.360;2023-07-22T06:55:53;15.03;;;7.30;;
20124;SDS011;10223;50.862;4.360;2023-07-22T06:58:20;20.63;;;8.00;;
20124;SDS011;10223;50.862;4.360;2023-07-22T07:00:51;16.67;;;7.10;;
20124;SDS011;10223;50.862;4.360;2023-07-22T07:03:19;22.27;;;8.67;;
20124;SDS011;10223;50.862;4.360;2023-07-22T07:05:51;17.67;;;7.53;;
20124;SDS011;10223;50.862;4.360;2023-07-22T07:08:19;18.33;;;7.73;;
20124;SDS011;10223;50.862;4.360;2023-07-22T07:10:46;16.43;;;7.77;;
20124;SDS011;10223;50.862;4.360;2023-07-22T07:13:13;15.50;;;7.57;;
20124;SDS011;10223;50.862;4.360;2023-07-22T07:15:40;22.00;;;7.87;;
20124;SDS011;10223;50.862;4.360;2023-07-22T07:18:06;15.10;;;7.53;;
20124;SDS011;10223;50.862;4.360;2023-07-22T07:20:33;16.23;;;7.43;;
20124;SDS011;10223;50.862;4.360;2023-07-22T07:23:00;15.03;;;7.20;;
20124;SDS011;10223;50.862;4.360;2023-07-22T07:25:28;12.63;;;6.53;;
20124;SDS011;10223;50.862;4.360;2023-07-22T07:27:55;16.13;;;7.40;;
20124;SDS011;10223;50.862;4.360;2023-07-22T07:30:22;12.73;;;6.97;;
20124;SDS011;10223;50.862;4.360;2023-07-22T07:32:49;16.97;;;6.43;;
20124;SDS011;10223;50.862;4.360;2023-07-22T07:35:16;14.37;;;6.83;;
20124;SDS011;10223;50.862;4.360;2023-07-22T07:37:42;16.23;;;7.40;;
20124;SDS011;10223;50.862;4.360;2023-07-22T07:40:10;17.30;;;6.70;;
20124;SDS011;10223;50.862;4.360;2023-07-22T07:42:39;19.13;;;6.90;;
20124;SDS011;10223;50.862;4.360;2023-07-22T07:45:06;16.70;;;6.33;;
20124;SDS011;10223;50.862;4.360;2023-07-22T07:47:34;11.40;;;6.70;;
20124;SDS011;10223;50.862;4.360;2023-07-22T07:50:01;14.13;;;6.70;;
20124;SDS011;10223;50.862;4.360;2023-07-22T07:52:28;17.75;;;6.85;;
20124;SDS011;10223;50.862;4.360;2023-07-22T07:54:55;15.00;;;5.95;;
20124;SDS011;10223;50.862;4.360;2023-07-22T07:57:21;14.85;;;6.55;;
20124;SDS011;10223;50.862;4.360;2023-07-22T07:59:49;18.60;;;6.50;;
20124;SDS011;10223;50.862;4.360;2023-07-22T08:02:16;14.82;;;6.97;;
20124;SDS011;10223;50.862;4.360;2023-07-22T08:04:43;20.85;;;5.90;;
20124;SDS011;10223;50.862;4.360;2023-07-22T08:07:10;15.23;;;6.82;;
20124;SDS011;10223;50.862;4.360;2023-07-22T08:09:41;14.73;;;5.95;;
20124;SDS011;10223;50.862;4.360;2023-07-22T08:12:08;11.55;;;5.72;;
20124;SDS011;10223;50.862;4.360;2023-07-22T08:14:35;13.67;;;5.37;;
20124;SDS011;10223;50.862;4.360;2023-07-22T08:17:03;14.73;;;4.70;;
20124;SDS011;10223;50.862;4.360;2023-07-22T08:19:30;14.75;;;5.40;;
20124;SDS011;10223;50.862;4.360;2023-07-22T08:21:57;11.65;;;4.75;;
20124;SDS011;10223;50.862;4.360;2023-07-22T08:24:24;8.85;;;4.28;;
20124;SDS011;10223;50.862;4.360;2023-07-22T08:26:51;17.63;;;4.95;;
20124;SDS011;10223;50.862;4.360;2023-07-22T08:29:17;11.07;;;5.18;;
20124;SDS011;10223;50.862;4.360;2023-07-22T08:31:44;13.65;;;4.32;;
20124;SDS011;10223;50.862;4.360;2023-07-22T08:34:13;8.73;;;3.40;;
20124;SDS011;10223;50.862;4.360;2023-07-22T08:36:39;11.68;;;4.30;;
20124;SDS011;10223;50.862;4.360;2023-07-22T08:39:07;7.80;;;3.95;;
20124;SDS011;10223;50.862;4.360;2023-07-22T08:41:34;11.15;;;4.25;;
20124;SDS011;10223;50.862;4.360;2023-07-22T08:44:02;10.60;;;3.83;;
20124;SDS011;10223;50.862;4.360;2023-07-22T08:46:31;12.48;;;4.18;;
20124;SDS011;10223;50.862;4.360;2023-07-22T08:49:00;8.73;;;3.70;;
20124;SDS011;10223;50.862;4.360;2023-07-22T08:51:28;8.50;;;3.70;;
20124;SDS011;10223;50.862;4.360;2023-07-22T08:53:57;13.05;;;4.38;;
20124;SDS011;10223;50.862;4.360;2023-07-22T08:56:24;7.88;;;3.80;;
20124;SDS011;10223;50.862;4.360;2023-07-22T08:58:51;11.10;;;3.92;;
20124;SDS011;10223;50.862;4.360;2023-07-22T09:01:19;11.02;;;3.95;;
20124;SDS011;10223;50.862;4.360;2023-07-22T09:03:46;10.02;;;3.90;;
20124;SDS011;10223;50.862;4.360;2023-07-22T09:06:16;8.23;;;3.58;;
20124;SDS011;10223;50.862;4.360;2023-07-22T09:08:45;9.85;;;3.58;;
20124;SDS011;10223;50.862;4.360;2023-07-22T09:11:12;8.80;;;3.70;;
20124;SDS011;10223;50.862;4.360;2023-07-22T09:13:39;9.88;;;3.55;;
20124;SDS011;10223;50.862;4.360;2023-07-22T09:16:10;7.55;;;3.20;;
20124;SDS011;10223;50.862;4.360;2023-07-22T09:18:38;7.47;;;3.28;;
20124;SDS011;10223;50.862;4.360;2023-07-22T09:21:05;5.40;;;2.92;;
20124;SDS011;10223;50.862;4.360;2023-07-22T09:23:32;7.70;;;2.50;;
20124;SDS011;10223;50.862;4.360;2023-07-22T09:26:11;7.15;;;2.78;;
20124;SDS011;10223;50.862;4.360;2023-07-22T09:28:49;5.07;;;2.28;;
20124;SDS011;10223;50.862;4.360;2023-07-22T09:31:20;8.52;;;2.50;;
20124;SDS011;10223;50.862;4.360;2023-07-22T09:33:47;4.90;;;2.10;;
20124;SDS011;10223;50.862;4.360;2023-07-22T09:36:14;8.40;;;2.95;;
20124;SDS011;10223;50.862;4.360;2023-07-22T09:38:40;4.45;;;1.92;;
20124;SDS011;10223;50.862;4.360;2023-07-22T09:41:07;9.10;;;2.15;;
20124;SDS011;10223;50.862;4.360;2023-07-22T09:43:39;5.90;;;2.20;;
20124;SDS011;10223;50.862;4.360;2023-07-22T09:46:06;6.68;;;2.50;;
20124;SDS011;10223;50.862;4.360;2023-07-22T09:48:40;5.25;;;2.10;;
20124;SDS011;10223;50.862;4.360;2023-07-22T09:51:12;4.07;;;1.63;;
20124;SDS011;10223;50.862;4.360;2023-07-22T09:53:46;6.80;;;1.95;;
20124;SDS011;10223;50.862;4.360;2023-07-22T09:56:13;8.63;;;2.25;;
20124;SDS011;10223;50.862;4.360;2023-07-22T09:58:41;4.53;;;2.35;;
20124;SDS011;10223;50.862;4.360;2023-07-22T10:01:11;4.72;;;1.98;;
20124;SDS011;10223;50.862;4.360;2023-07-22T10:03:42;5.15;;;2.42;;
20124;SDS011;10223;50.862;4.360;2023-07-22T10:06:11;4.30;;;2.20;;
20124;SDS011;10223;50.862;4.360;2023-07-22T10:08:40;5.68;;;1.88;;
20124;SDS011;10223;50.862;4.360;2023-07-22T10:11:09;3.65;;;1.95;;
20124;SDS011;10223;50.862;4.360;2023-07-22T10:13:39;4.95;;;1.73;;
20124;SDS011;10223;50.862;4.360;2023-07-22T10:16:07;6.95;;;2.35;;
20124;SDS011;10223;50.862;4.360;2023-07-22T10:18:34;4.50;;;1.95;;
20124;SDS011;10223;50.862;4.360;2023-07-22T10:21:03;5.20;;;1.90;;
20124;SDS011;10223;50.862;4.360;2023-07-22T10:23:30;5.68;;;2.35;;
20124;SDS011;10223;50.862;4.360;2023-07-22T10:25:58;3.47;;;1.55;;
20124;SDS011;10223;50.862;4.360;2023-07-22T10:28:26;3.03;;;1.73;;
20124;SDS011;10223;50.862;4.360;2023-07-22T10:30:54;2.30;;;1.10;;
20124;SDS011;10223;50.862;4.360;2023-07-22T10:33:23;4.13;;;1.55;;
20124;SDS011;10223;50.862;4.360;2023-07-22T10:36:04;2.65;;;1.48;;
20124;SDS011;10223;50.862;4.360;2023-07-22T10:38:31;3.42;;;1.67;;
20124;SDS011;10223;50.862;4.360;2023-07-22T10:40:59;2.63;;;1.40;;
20124;SDS011;10223;50.862;4.360;2023-07-22T10:43:29;4.50;;;2.08;;
20124;SDS011;10223;50.862;4.360;2023-07-22T10:46:00;2.50;;;1.20;;
20124;SDS011;10223;50.862;4.360;2023-07-22T10:48:35;2.40;;;1.40;;
20124;SDS011;10223;50.862;4.360;2023-07-22T10:51:05;4.35;;;1.77;;
20124;SDS011;10223;50.862;4.360;2023-07-22T10:53:37;3.15;;;1.48;;
20124;SDS011;10223;50.862;4.360;2023-07-22T10:56:13;3.70;;;1.95;;
20124;SDS011;10223;50.862;4.360;2023-07-22T10:58:57;3.60;;;1.42;;
20124;SDS011;10223;50.862;4.360;2023-07-22T11:01:33;3.55;;;1.58;;
20124;SDS011;10223;50.862;4.360;2023-07-22T11:04:09;4.30;;;1.70;;
20124;SDS011;10223;50.862;4.360;2023-07-22T11:06:38;3.83;;;1.67;;
20124;SDS011;10223;50.862;4.360;2023-07-22T11:09:06;5.45;;;2.05;;
20124;SDS011;10223;50.862;4.360;2023-07-22T11:11:34;3.60;;;1.50;;
20124;SDS011;10223;50.862;4.360;2023-07-22T11:14:15;4.60;;;2.03;;
20124;SDS011;10223;50.862;4.360;2023-07-22T11:16:44;3.38;;;1.60;;
20124;SDS011;10223;50.862;4.360;2023-07-22T11:19:13;9.52;;;2.30;;
20124;SDS011;10223;50.862;4.360;2023-07-22T11:21:41;3.95;;;1.83;;
20124;SDS011;10223;50.862;4.360;2023-07-22T11:24:08;5.30;;;1.83;;
20124;SDS011;10223;50.862;4.360;2023-07-22T11:26:35;4.47;;;2.17;;
20124;SDS011;10223;50.862;4.360;2023-07-22T11:29:03;5.60;;;2.83;;
20124;SDS011;10223;50.862;4.360;2023-07-22T11:31:31;3.75;;;2.20;;
20124;SDS011;10223;50.862;4.360;2023-07-22T11:33:58;3.08;;;1.85;;
20124;SDS011;10223;50.862;4.360;2023-07-22T11:36:27;5.45;;;1.60;;
20124;SDS011;10223;50.862;4.360;2023-07-22T11:38:54;2.58;;;1.67;;
20124;SDS011;10223;50.862;4.360;2023-07-22T11:41:29;4.30;;;1.83;;
20124;SDS011;10223;50.862;4.360;2023-07-22T11:43:56;5.95;;;2.13;;
20124;SDS011;10223;50.862;4.360;2023-07-22T11:46:23;4.30;;;2.10;;
20124;SDS011;10223;50.862;4.360;2023-07-22T11:48:51;3.97;;;1.80;;
20124;SDS011;10223;50.862;4.360;2023-07-22T11:51:19;5.40;;;2.15;;
20124;SDS011;10223;50.862;4.360;2023-07-22T11:53:48;3.17;;;1.65;;
20124;SDS011;10223;50.862;4.360;2023-07-22T11:56:20;6.25;;;3.03;;
20124;SDS011;10223;50.862;4.360;2023-07-22T11:58:50;3.05;;;2.00;;
20124;SDS011;10223;50.862;4.360;2023-07-22T12:01:18;2.72;;;1.52;;
20124;SDS011;10223;50.862;4.360;2023-07-22T12:03:45;3.00;;;2.00;;
20124;SDS011;10223;50.862;4.360;2023-07-22T12:06:13;4.28;;;2.22;;
20124;SDS011;10223;50.862;4.360;2023-07-22T12:08:44;3.10;;;1.85;;
20124;SDS011;10223;50.862;4.360;2023-07-22T12:11:20;5.60;;;2.10;;
20124;SDS011;10223;50.862;4.360;2023-07-22T12:13:56;4.20;;;2.00;;
20124;SDS011;10223;50.862;4.360;2023-07-22T12:16:34;3.78;;;2.13;;
20124;SDS011;10223;50.862;4.360;2023-07-22T12:19:01;2.63;;;1.88;;
20124;SDS011;10223;50.862;4.360;2023-07-22T12:21:29;5.65;;;1.70;;
20124;SDS011;10223;50.862;4.360;2023-07-22T12:23:56;2.40;;;1.65;;
20124;SDS011;10223;50.862;4.360;2023-07-22T12:26:25;8.07;;;1.85;;
20124;SDS011;10223;50.862;4.360;2023-07-22T12:28:52;4.50;;;1.98;;
20124;SDS011;10223;50.862;4.360;2023-07-22T12:31:19;4.30;;;1.45;;
20124;SDS011;10223;50.862;4.360;2023-07-22T12:33:46;2.97;;;1.55;;
20124;SDS011;10223;50.862;4.360;2023-07-22T12:36:12;4.65;;;2.00;;
20124;SDS011;10223;50.862;4.360;2023-07-22T12:38:39;3.05;;;1.60;;
20124;SDS011;10223;50.862;4.360;2023-07-22T12:41:07;4.25;;;1.40;;
20124;SDS011;10223;50.862;4.360;2023-07-22T12:43:35;3.28;;;1.40;;
20124;SDS011;10223;50.862;4.360;2023-07-22T12:46:02;5.85;;;1.90;;
20124;SDS011;10223;50.862;4.360;2023-07-22T12:48:29;4.55;;;1.77;;
20124;SDS011;10223;50.862;4.360;2023-07-22T12:50:55;2.75;;;1.70;;
20124;SDS011;10223;50.862;4.360;2023-07-22T12:53:23;3.45;;;1.52;;
20124;SDS011;10223;50.862;4.360;2023-07-22T12:55:50;3.65;;;1.98;;
20124;SDS011;10223;50.862;4.360;2023-07-22T12:58:17;2.28;;;1.60;;
20124;SDS011;10223;50.862;4.360;2023-07-22T13:00:46;2.42;;;1.52;;
20124;SDS011;10223;50.862;4.360;2023-07-22T13:03:12;4.35;;;1.58;;
20124;SDS011;10223;50.862;4.360;2023-07-22T13:05:39;3.28;;;1.50;;
20124;SDS011;10223;50.862;4.360;2023-07-22T13:08:06;6.95;;;1.65;;
20124;SDS011;10223;50.862;4.360;2023-07-22T13:10:33;4.03;;;1.58;;
20124;SDS011;10223;50.862;4.360;2023-07-22T13:13:02;4.45;;;1.90;;
20124;SDS011;10223;50.862;4.360;2023-07-22T13:15:29;7.15;;;2.10;;
20124;SDS011;10223;50.862;4.360;2023-07-22T13:17:57;5.00;;;1.70;;
20124;SDS011;10223;50.862;4.360;2023-07-22T13:20:24;3.60;;;1.50;;
20124;SDS011;10223;50.862;4.360;2023-07-22T13:22:51;4.43;;;1.80;;
20124;SDS011;10223;50.862;4.360;2023-07-22T13:25:18;3.47;;;1.55;;
20124;SDS011;10223;50.862;4.360;2023-07-22T13:27:44;8.60;;;1.85;;
20124;SDS011;10223;50.862;4.360;2023-07-22T13:30:11;5.45;;;1.58;;
20124;SDS011;10223;50.862;4.360;2023-07-22T13:32:38;4.25;;;1.52;;
20124;SDS011;10223;50.862;4.360;2023-07-22T13:35:07;3.25;;;1.70;;
20124;SDS011;10223;50.862;4.360;2023-07-22T13:37:35;4.57;;;1.63;;
20124;SDS011;10223;50.862;4.360;2023-07-22T13:40:02;3.45;;;1.58;;
20124;SDS011;10223;50.862;4.360;2023-07-22T13:42:35;4.35;;;1.90;;
20124;SDS011;10223;50.862;4.360;2023-07-22T13:45:02;7.03;;;1.88;;
20124;SDS011;10223;50.862;4.360;2023-07-22T13:47:29;2.85;;;1.60;;
20124;SDS011;10223;50.862;4.360;2023-07-22T13:49:56;3.65;;;2.00;;
20124;SDS011;10223;50.862;4.360;2023-07-22T13:52:24;9.48;;;1.90;;
20124;SDS011;10223;50.862;4.360;2023-07-22T13:54:51;7.43;;;2.00;;
20124;SDS011;10223;50.862;4.360;2023-07-22T13:57:18;4.28;;;1.67;;
20124;SDS011;10223;50.862;4.360;2023-07-22T13:59:45;6.53;;;1.98;;
20124;SDS011;10223;50.862;4.360;2023-07-22T14:02:12;2.78;;;1.65;;
20124;SDS011;10223;50.862;4.360;2023-07-22T14:04:39;11.77;;;1.92;;
20124;SDS011;10223;50.862;4.360;2023-07-22T14:07:06;4.88;;;1.80;;
20124;SDS011;10223;50.862;4.360;2023-07-22T14:09:34;5.22;;;2.10;;
20124;SDS011;10223;50.862;4.360;2023-07-22T14:12:01;5.95;;;1.58;;
20124;SDS011;10223;50.862;4.360;2023-07-22T14:14:28;5.68;;;1.77;;
20124;SDS011;10223;50.862;4.360;2023-07-22T14:16:55;3.00;;;1.60;;
20124;SDS011;10223;50.862;4.360;2023-07-22T14:19:23;2.95;;;1.50;;
20124;SDS011;10223;50.862;4.360;2023-07-22T14:21:50;4.00;;;1.92;;
20124;SDS011;10223;50.862;4.360;2023-07-22T14:24:17;5.28;;;1.63;;
20124;SDS011;10223;50.862;4.360;2023-07-22T14:26:45;6.78;;;2.20;;
20124;SDS011;10223;50.862;4.360;2023-07-22T14:29:13;4.32;;;1.70;;
20124;SDS011;10223;50.862;4.360;2023-07-22T14:31:41;4.85;;;1.80;;
20124;SDS011;10223;50.862;4.360;2023-07-22T14:34:08;3.83;;;1.50;;
20124;SDS011;10223;50.862;4.360;2023-07-22T14:36:35;3.78;;;1.73;;
20124;SDS011;10223;50.862;4.360;2023-07-22T14:39:02;3.20;;;2.08;;
20124;SDS011;10223;50.862;4.360;2023-07-22T14:41:29;6.97;;;1.60;;